sensor_id;sensor_type;location;lat;lon;timestamp;P1;durP1;ratioP1;P2;durP2;ratioP2
46713;SDS011;32445;51.376;10.874;2022-08-06T00:02:39;2.90;;;1.90;;
46713;SDS011;32445;51.376;10.874;2022-08-06T00:05:39;3.10;;;1.20;;
46713;SDS011;32445;51.376;10.874;2022-08-06T00:08:40;1.67;;;1.23;;
46713;SDS011;32445;51.376;10.874;2022-08-06T00:11:40;1.70;;;1.10;;
46713;SDS011;32445;51.376;10.874;2022-08-06T00:14:41;2.25;;;1.17;;
46713;SDS011;32445;51.376;10.874;2022-08-06T00:17:41;3.43;;;0.80;;
46713;SDS011;32445;51.376;10.874;2022-08-06T00:20:42;6.05;;;0.82;;
46713;SDS011;32445;51.376;10.874;2022-08-06T00:23:43;3.93;;;0.80;;
46713;SDS011;32445;51.376;10.874;2022-08-06T00:26:43;3.03;;;1.07;;
46713;SDS011;32445;51.376;10.874;2022-08-06T00:29:44;4.33;;;1.03;;
46713;SDS011;32445;51.376;10.874;2022-08-06T00:32:44;1.80;;;0.73;;
46713;SDS011;32445;51.376;10.874;2022-08-06T00:35:44;1.00;;;0.90;;
46713;SDS011;32445;51.376;10.874;2022-08-06T00:38:45;1.23;;;0.57;;
46713;SDS011;32445;51.376;10.874;2022-08-06T00:41:45;1.33;;;0.77;;
46713;SDS011;32445;51.376;10.874;2022-08-06T00:44:45;4.23;;;1.47;;
46713;SDS011;32445;51.376;10.874;2022-08-06T00:47:46;1.10;;;0.77;;
46713;SDS011;32445;51.376;10.874;2022-08-06T00:50:46;1.60;;;0.80;;
46713;SDS011;32445;51.376;10.874;2022-08-06T00:53:47;2.13;;;0.60;;
46713;SDS011;32445;51.376;10.874;2022-08-06T00:56:47;4.27;;;0.90;;
46713;SDS011;32445;51.376;10.874;2022-08-06T00:59:47;1.83;;;1.03;;
46713;SDS011;32445;51.376;10.874;2022-08-06T01:02:48;1.33;;;0.70;;
46713;SDS011;32445;51.376;10.874;2022-08-06T01:05:48;2.83;;;1.00;;
46713;SDS011;32445;51.376;10.874;2022-08-06T01:08:49;3.77;;;0.80;;
46713;SDS011;32445;51.376;10.874;2022-08-06T01:11:49;2.50;;;0.60;;
46713;SDS011;32445;51.376;10.874;2022-08-06T01:14:50;2.13;;;0.90;;
46713;SDS011;32445;51.376;10.874;2022-08-06T01:17:53;3.27;;;0.90;;
46713;SDS011;32445;51.376;10.874;2022-08-06T01:24:49;1.65;;;0.90;;
46713;SDS011;32445;51.376;10.874;2022-08-06T01:31:09;1.03;;;0.60;;
46713;SDS011;32445;51.376;10.874;2022-08-06T01:34:16;3.58;;;0.70;;
46713;SDS011;32445;51.376;10.874;2022-08-06T01:40:41;0.88;;;0.50;;
46713;SDS011;32445;51.376;10.874;2022-08-06T01:43:45;4.32;;;1.20;;
46713;SDS011;32445;51.376;10.874;2022-08-06T01:46:49;1.00;;;0.70;;
46713;SDS011;32445;51.376;10.874;2022-08-06T01:49:52;1.70;;;0.60;;
46713;SDS011;32445;51.376;10.874;2022-08-06T01:52:57;2.88;;;0.60;;
46713;SDS011;32445;51.376;10.874;2022-08-06T01:56:00;5.10;;;0.70;;
46713;SDS011;32445;51.376;10.874;2022-08-06T01:59:03;5.40;;;0.50;;
46713;SDS011;32445;51.376;10.874;2022-08-06T02:02:06;1.92;;;0.70;;
46713;SDS011;32445;51.376;10.874;2022-08-06T02:05:11;2.85;;;0.60;;
46713;SDS011;32445;51.376;10.874;2022-08-06T02:08:13;2.80;;;0.82;;
46713;SDS011;32445;51.376;10.874;2022-08-06T02:11:17;1.20;;;0.50;;
46713;SDS011;32445;51.376;10.874;2022-08-06T02:14:18;0.67;;;0.50;;
46713;SDS011;32445;51.376;10.874;2022-08-06T02:17:22;0.95;;;0.38;;
46713;SDS011;32445;51.376;10.874;2022-08-06T02:20:34;1.95;;;0.50;;
46713;SDS011;32445;51.376;10.874;2022-08-06T02:23:37;4.40;;;0.65;;
46713;SDS011;32445;51.376;10.874;2022-08-06T02:26:39;2.40;;;0.63;;
46713;SDS011;32445;51.376;10.874;2022-08-06T02:29:41;0.93;;;0.50;;
46713;SDS011;32445;51.376;10.874;2022-08-06T02:32:44;1.83;;;0.40;;
46713;SDS011;32445;51.376;10.874;2022-08-06T02:38:55;5.53;;;0.70;;
46713;SDS011;32445;51.376;10.874;2022-08-06T02:42:03;3.00;;;0.60;;
46713;SDS011;32445;51.376;10.874;2022-08-06T02:48:18;2.50;;;0.70;;
46713;SDS011;32445;51.376;10.874;2022-08-06T02:51:27;1.73;;;0.50;;
46713;SDS011;32445;51.376;10.874;2022-08-06T02:54:43;0.85;;;0.40;;
46713;SDS011;32445;51.376;10.874;2022-08-06T02:57:49;0.75;;;0.50;;
46713;SDS011;32445;51.376;10.874;2022-08-06T03:00:52;2.05;;;0.90;;
46713;SDS011;32445;51.376;10.874;2022-08-06T03:03:57;3.65;;;0.50;;
46713;SDS011;32445;51.376;10.874;2022-08-06T03:07:02;1.15;;;0.95;;
46713;SDS011;32445;51.376;10.874;2022-08-06T03:10:07;2.22;;;0.82;;
46713;SDS011;32445;51.376;10.874;2022-08-06T03:13:09;1.05;;;0.55;;
46713;SDS011;32445;51.376;10.874;2022-08-06T03:16:10;1.02;;;0.70;;
46713;SDS011;32445;51.376;10.874;2022-08-06T03:19:12;1.38;;;0.68;;
46713;SDS011;32445;51.376;10.874;2022-08-06T03:22:13;1.00;;;0.45;;
46713;SDS011;32445;51.376;10.874;2022-08-06T03:25:16;0.95;;;0.50;;
46713;SDS011;32445;51.376;10.874;2022-08-06T03:28:17;0.95;;;0.57;;
46713;SDS011;32445;51.376;10.874;2022-08-06T03:31:18;1.42;;;0.70;;
46713;SDS011;32445;51.376;10.874;2022-08-06T03:34:20;1.23;;;0.57;;
46713;SDS011;32445;51.376;10.874;2022-08-06T03:37:21;0.63;;;0.52;;
46713;SDS011;32445;51.376;10.874;2022-08-06T03:40:23;3.75;;;0.68;;
46713;SDS011;32445;51.376;10.874;2022-08-06T03:46:35;3.55;;;0.70;;
46713;SDS011;32445;51.376;10.874;2022-08-06T03:49:42;2.92;;;0.70;;
46713;SDS011;32445;51.376;10.874;2022-08-06T03:53:07;1.40;;;0.70;;
46713;SDS011;32445;51.376;10.874;2022-08-06T03:56:14;2.28;;;0.50;;
46713;SDS011;32445;51.376;10.874;2022-08-06T03:59:20;2.85;;;0.75;;
46713;SDS011;32445;51.376;10.874;2022-08-06T04:02:22;2.97;;;0.80;;
46713;SDS011;32445;51.376;10.874;2022-08-06T04:05:27;2.90;;;0.70;;
46713;SDS011;32445;51.376;10.874;2022-08-06T04:08:28;1.15;;;0.80;;
46713;SDS011;32445;51.376;10.874;2022-08-06T04:11:30;1.05;;;0.50;;
46713;SDS011;32445;51.376;10.874;2022-08-06T04:14:32;3.22;;;0.50;;
46713;SDS011;32445;51.376;10.874;2022-08-06T04:17:34;3.15;;;0.60;;
46713;SDS011;32445;51.376;10.874;2022-08-06T04:20:41;3.33;;;0.70;;
46713;SDS011;32445;51.376;10.874;2022-08-06T04:23:44;0.70;;;0.55;;
46713;SDS011;32445;51.376;10.874;2022-08-06T04:26:45;0.57;;;0.50;;
46713;SDS011;32445;51.376;10.874;2022-08-06T04:29:48;2.88;;;0.60;;
46713;SDS011;32445;51.376;10.874;2022-08-06T04:32:51;1.88;;;0.80;;
46713;SDS011;32445;51.376;10.874;2022-08-06T04:35:53;0.98;;;0.55;;
46713;SDS011;32445;51.376;10.874;2022-08-06T04:38:54;2.50;;;0.63;;
46713;SDS011;32445;51.376;10.874;2022-08-06T04:41:55;2.87;;;0.70;;
46713;SDS011;32445;51.376;10.874;2022-08-06T04:44:56;3.90;;;0.50;;
46713;SDS011;32445;51.376;10.874;2022-08-06T04:47:57;1.77;;;0.52;;
46713;SDS011;32445;51.376;10.874;2022-08-06T04:51:01;1.50;;;0.80;;
46713;SDS011;32445;51.376;10.874;2022-08-06T04:54:05;2.85;;;0.60;;
46713;SDS011;32445;51.376;10.874;2022-08-06T04:57:06;0.85;;;0.70;;
46713;SDS011;32445;51.376;10.874;2022-08-06T05:00:06;3.43;;;0.90;;
46713;SDS011;32445;51.376;10.874;2022-08-06T05:03:07;0.43;;;0.40;;
46713;SDS011;32445;51.376;10.874;2022-08-06T05:06:16;2.00;;;0.43;;
46713;SDS011;32445;51.376;10.874;2022-08-06T05:09:24;2.72;;;0.50;;
46713;SDS011;32445;51.376;10.874;2022-08-06T05:12:45;3.72;;;0.52;;
46713;SDS011;32445;51.376;10.874;2022-08-06T05:15:53;0.75;;;0.70;;
46713;SDS011;32445;51.376;10.874;2022-08-06T05:19:00;3.65;;;0.75;;
46713;SDS011;32445;51.376;10.874;2022-08-06T05:22:04;0.40;;;0.40;;
46713;SDS011;32445;51.376;10.874;2022-08-06T05:25:07;0.70;;;0.50;;
46713;SDS011;32445;51.376;10.874;2022-08-06T05:28:08;2.67;;;0.50;;
46713;SDS011;32445;51.376;10.874;2022-08-06T05:31:09;2.47;;;0.63;;
46713;SDS011;32445;51.376;10.874;2022-08-06T05:34:10;0.87;;;0.50;;
46713;SDS011;32445;51.376;10.874;2022-08-06T05:40:11;7.53;;;0.90;;
46713;SDS011;32445;51.376;10.874;2022-08-06T05:43:11;1.40;;;1.23;;
46713;SDS011;32445;51.376;10.874;2022-08-06T05:46:13;1.30;;;0.93;;
46713;SDS011;32445;51.376;10.874;2022-08-06T05:49:39;1.05;;;0.82;;
46713;SDS011;32445;51.376;10.874;2022-08-06T05:52:48;2.03;;;0.70;;
46713;SDS011;32445;51.376;10.874;2022-08-06T05:56:18;0.93;;;0.60;;
46713;SDS011;32445;51.376;10.874;2022-08-06T05:59:19;1.98;;;1.10;;
46713;SDS011;32445;51.376;10.874;2022-08-06T06:02:25;2.88;;;0.50;;
46713;SDS011;32445;51.376;10.874;2022-08-06T06:05:27;2.25;;;0.70;;
46713;SDS011;32445;51.376;10.874;2022-08-06T06:08:29;0.47;;;0.45;;
46713;SDS011;32445;51.376;10.874;2022-08-06T06:11:30;3.00;;;0.63;;
46713;SDS011;32445;51.376;10.874;2022-08-06T06:14:38;0.73;;;0.65;;
46713;SDS011;32445;51.376;10.874;2022-08-06T06:21:15;3.45;;;0.80;;
46713;SDS011;32445;51.376;10.874;2022-08-06T06:24:41;2.90;;;0.60;;
46713;SDS011;32445;51.376;10.874;2022-08-06T06:27:52;2.47;;;0.93;;
46713;SDS011;32445;51.376;10.874;2022-08-06T06:30:59;1.63;;;0.63;;
46713;SDS011;32445;51.376;10.874;2022-08-06T06:34:09;1.05;;;0.70;;
46713;SDS011;32445;51.376;10.874;2022-08-06T06:37:24;3.53;;;0.77;;
46713;SDS011;32445;51.376;10.874;2022-08-06T06:47:23;0.68;;;0.45;;
46713;SDS011;32445;51.376;10.874;2022-08-06T06:50:30;3.45;;;0.60;;
46713;SDS011;32445;51.376;10.874;2022-08-06T06:53:36;1.00;;;0.52;;
46713;SDS011;32445;51.376;10.874;2022-08-06T06:56:45;0.60;;;0.40;;
46713;SDS011;32445;51.376;10.874;2022-08-06T06:59:49;1.05;;;0.55;;
46713;SDS011;32445;51.376;10.874;2022-08-06T07:02:52;1.95;;;0.60;;
46713;SDS011;32445;51.376;10.874;2022-08-06T07:08:55;3.42;;;0.60;;
46713;SDS011;32445;51.376;10.874;2022-08-06T07:11:58;2.17;;;0.55;;
46713;SDS011;32445;51.376;10.874;2022-08-06T07:14:59;3.20;;;0.90;;
46713;SDS011;32445;51.376;10.874;2022-08-06T07:18:01;5.75;;;0.93;;
46713;SDS011;32445;51.376;10.874;2022-08-06T07:21:03;2.38;;;0.88;;
46713;SDS011;32445;51.376;10.874;2022-08-06T07:24:06;2.97;;;0.60;;
46713;SDS011;32445;51.376;10.874;2022-08-06T07:27:08;2.47;;;1.13;;
46713;SDS011;32445;51.376;10.874;2022-08-06T07:30:12;1.27;;;0.60;;
46713;SDS011;32445;51.376;10.874;2022-08-06T07:33:14;2.60;;;0.60;;
46713;SDS011;32445;51.376;10.874;2022-08-06T07:36:16;1.33;;;0.40;;
46713;SDS011;32445;51.376;10.874;2022-08-06T07:39:24;1.83;;;0.40;;
46713;SDS011;32445;51.376;10.874;2022-08-06T07:42:28;1.23;;;0.40;;
46713;SDS011;32445;51.376;10.874;2022-08-06T07:45:31;0.90;;;0.40;;
46713;SDS011;32445;51.376;10.874;2022-08-06T07:48:40;1.55;;;0.52;;
46713;SDS011;32445;51.376;10.874;2022-08-06T07:51:45;0.38;;;0.20;;
46713;SDS011;32445;51.376;10.874;2022-08-06T07:54:47;1.38;;;0.80;;
46713;SDS011;32445;51.376;10.874;2022-08-06T07:57:49;1.35;;;0.60;;
46713;SDS011;32445;51.376;10.874;2022-08-06T08:00:49;0.73;;;0.30;;
46713;SDS011;32445;51.376;10.874;2022-08-06T08:03:50;1.98;;;0.50;;
46713;SDS011;32445;51.376;10.874;2022-08-06T08:07:11;1.30;;;0.30;;
46713;SDS011;32445;51.376;10.874;2022-08-06T08:10:11;0.97;;;0.33;;
46713;SDS011;32445;51.376;10.874;2022-08-06T08:13:12;1.08;;;0.30;;
46713;SDS011;32445;51.376;10.874;2022-08-06T08:16:14;1.60;;;0.40;;
46713;SDS011;32445;51.376;10.874;2022-08-06T08:22:33;1.30;;;0.60;;
46713;SDS011;32445;51.376;10.874;2022-08-06T08:25:34;1.13;;;0.30;;
46713;SDS011;32445;51.376;10.874;2022-08-06T08:28:35;0.50;;;0.30;;
46713;SDS011;32445;51.376;10.874;2022-08-06T08:31:35;1.50;;;0.30;;
46713;SDS011;32445;51.376;10.874;2022-08-06T08:34:36;3.60;;;0.47;;
46713;SDS011;32445;51.376;10.874;2022-08-06T08:37:36;4.80;;;0.50;;
46713;SDS011;32445;51.376;10.874;2022-08-06T08:40:37;1.23;;;0.40;;
46713;SDS011;32445;51.376;10.874;2022-08-06T08:43:51;1.20;;;0.30;;
46713;SDS011;32445;51.376;10.874;2022-08-06T08:46:56;2.47;;;0.40;;
46713;SDS011;32445;51.376;10.874;2022-08-06T08:49:58;1.88;;;0.40;;
46713;SDS011;32445;51.376;10.874;2022-08-06T08:53:08;2.60;;;0.40;;
46713;SDS011;32445;51.376;10.874;2022-08-06T08:56:11;1.10;;;0.50;;
46713;SDS011;32445;51.376;10.874;2022-08-06T08:59:12;1.10;;;0.40;;
46713;SDS011;32445;51.376;10.874;2022-08-06T09:02:13;1.67;;;0.30;;
46713;SDS011;32445;51.376;10.874;2022-08-06T09:05:13;1.47;;;0.30;;
46713;SDS011;32445;51.376;10.874;2022-08-06T09:08:14;0.45;;;0.17;;
46713;SDS011;32445;51.376;10.874;2022-08-06T09:11:17;2.05;;;0.43;;
46713;SDS011;32445;51.376;10.874;2022-08-06T09:14:17;0.40;;;0.30;;
46713;SDS011;32445;51.376;10.874;2022-08-06T09:17:19;0.30;;;0.20;;
46713;SDS011;32445;51.376;10.874;2022-08-06T09:20:20;2.83;;;0.40;;
46713;SDS011;32445;51.376;10.874;2022-08-06T09:23:20;0.57;;;0.23;;
46713;SDS011;32445;51.376;10.874;2022-08-06T09:26:21;1.53;;;0.30;;
46713;SDS011;32445;51.376;10.874;2022-08-06T09:29:21;5.20;;;0.53;;
46713;SDS011;32445;51.376;10.874;2022-08-06T09:32:37;1.17;;;0.40;;
46713;SDS011;32445;51.376;10.874;2022-08-06T09:35:42;1.00;;;0.40;;
46713;SDS011;32445;51.376;10.874;2022-08-06T09:38:53;1.00;;;0.27;;
46713;SDS011;32445;51.376;10.874;2022-08-06T09:41:59;0.38;;;0.20;;
46713;SDS011;32445;51.376;10.874;2022-08-06T09:45:06;0.60;;;0.20;;
46713;SDS011;32445;51.376;10.874;2022-08-06T09:48:07;4.25;;;0.43;;
46713;SDS011;32445;51.376;10.874;2022-08-06T09:51:13;2.10;;;0.30;;
46713;SDS011;32445;51.376;10.874;2022-08-06T09:54:21;2.30;;;0.30;;
46713;SDS011;32445;51.376;10.874;2022-08-06T09:57:43;1.13;;;0.17;;
46713;SDS011;32445;51.376;10.874;2022-08-06T10:00:45;1.50;;;0.40;;
46713;SDS011;32445;51.376;10.874;2022-08-06T10:03:47;0.73;;;0.30;;
46713;SDS011;32445;51.376;10.874;2022-08-06T10:06:53;0.93;;;0.20;;
46713;SDS011;32445;51.376;10.874;2022-08-06T10:09:55;2.35;;;0.30;;
46713;SDS011;32445;51.376;10.874;2022-08-06T10:13:09;3.30;;;0.30;;
46713;SDS011;32445;51.376;10.874;2022-08-06T10:16:17;1.38;;;0.32;;
46713;SDS011;32445;51.376;10.874;2022-08-06T10:19:19;0.38;;;0.20;;
46713;SDS011;32445;51.376;10.874;2022-08-06T10:22:19;0.90;;;0.20;;
46713;SDS011;32445;51.376;10.874;2022-08-06T10:25:21;1.20;;;0.25;;
46713;SDS011;32445;51.376;10.874;2022-08-06T10:31:25;0.50;;;0.22;;
46713;SDS011;32445;51.376;10.874;2022-08-06T10:34:26;0.97;;;0.30;;
46713;SDS011;32445;51.376;10.874;2022-08-06T10:37:27;1.70;;;0.15;;
46713;SDS011;32445;51.376;10.874;2022-08-06T10:40:28;1.70;;;0.20;;
46713;SDS011;32445;51.376;10.874;2022-08-06T10:43:29;0.68;;;0.28;;
46713;SDS011;32445;51.376;10.874;2022-08-06T10:46:29;6.47;;;0.30;;
46713;SDS011;32445;51.376;10.874;2022-08-06T10:49:32;2.33;;;0.17;;
46713;SDS011;32445;51.376;10.874;2022-08-06T10:52:34;1.08;;;0.30;;
46713;SDS011;32445;51.376;10.874;2022-08-06T10:55:34;4.40;;;0.30;;
46713;SDS011;32445;51.376;10.874;2022-08-06T10:58:35;0.50;;;0.30;;
46713;SDS011;32445;51.376;10.874;2022-08-06T11:05:00;2.05;;;0.30;;
46713;SDS011;32445;51.376;10.874;2022-08-06T11:11:31;1.95;;;0.30;;
46713;SDS011;32445;51.376;10.874;2022-08-06T11:14:40;2.28;;;0.25;;
46713;SDS011;32445;51.376;10.874;2022-08-06T11:17:44;1.13;;;0.40;;
46713;SDS011;32445;51.376;10.874;2022-08-06T11:20:47;1.17;;;0.20;;
46713;SDS011;32445;51.376;10.874;2022-08-06T11:23:48;1.20;;;0.20;;
46713;SDS011;32445;51.376;10.874;2022-08-06T11:27:00;1.00;;;0.30;;
46713;SDS011;32445;51.376;10.874;2022-08-06T11:30:07;4.50;;;0.40;;
46713;SDS011;32445;51.376;10.874;2022-08-06T11:33:13;1.42;;;0.32;;
46713;SDS011;32445;51.376;10.874;2022-08-06T11:40:03;1.23;;;0.40;;
46713;SDS011;32445;51.376;10.874;2022-08-06T11:43:06;0.90;;;0.30;;
46713;SDS011;32445;51.376;10.874;2022-08-06T11:46:40;1.30;;;0.13;;
46713;SDS011;32445;51.376;10.874;2022-08-06T11:49:43;2.25;;;0.15;;
46713;SDS011;32445;51.376;10.874;2022-08-06T11:52:45;4.13;;;0.47;;
46713;SDS011;32445;51.376;10.874;2022-08-06T11:56:04;1.17;;;0.27;;
46713;SDS011;32445;51.376;10.874;2022-08-06T11:59:12;1.33;;;0.30;;
46713;SDS011;32445;51.376;10.874;2022-08-06T12:02:15;1.13;;;0.25;;
46713;SDS011;32445;51.376;10.874;2022-08-06T12:08:18;1.23;;;0.10;;
46713;SDS011;32445;51.376;10.874;2022-08-06T12:11:24;1.25;;;0.20;;
46713;SDS011;32445;51.376;10.874;2022-08-06T12:14:36;1.08;;;0.25;;
46713;SDS011;32445;51.376;10.874;2022-08-06T12:17:39;1.02;;;0.38;;
46713;SDS011;32445;51.376;10.874;2022-08-06T12:20:41;0.30;;;0.20;;
46713;SDS011;32445;51.376;10.874;2022-08-06T12:23:43;0.70;;;0.30;;
46713;SDS011;32445;51.376;10.874;2022-08-06T12:26:44;1.02;;;0.20;;
46713;SDS011;32445;51.376;10.874;2022-08-06T12:29:45;0.35;;;0.10;;
46713;SDS011;32445;51.376;10.874;2022-08-06T12:32:45;1.02;;;0.30;;
46713;SDS011;32445;51.376;10.874;2022-08-06T12:35:53;0.33;;;0.20;;
46713;SDS011;32445;51.376;10.874;2022-08-06T12:38:58;0.30;;;0.15;;
46713;SDS011;32445;51.376;10.874;2022-08-06T12:42:00;2.65;;;0.32;;
46713;SDS011;32445;51.376;10.874;2022-08-06T12:45:00;0.77;;;0.23;;
46713;SDS011;32445;51.376;10.874;2022-08-06T12:48:09;1.17;;;0.10;;
46713;SDS011;32445;51.376;10.874;2022-08-06T12:51:11;0.93;;;0.25;;
46713;SDS011;32445;51.376;10.874;2022-08-06T12:54:13;0.77;;;0.22;;
46713;SDS011;32445;51.376;10.874;2022-08-06T12:57:26;0.60;;;0.20;;
46713;SDS011;32445;51.376;10.874;2022-08-06T13:00:28;1.65;;;0.30;;
46713;SDS011;32445;51.376;10.874;2022-08-06T13:03:29;0.40;;;0.10;;
46713;SDS011;32445;51.376;10.874;2022-08-06T13:06:32;0.88;;;0.30;;
46713;SDS011;32445;51.376;10.874;2022-08-06T13:09:34;2.65;;;0.32;;
46713;SDS011;32445;51.376;10.874;2022-08-06T13:12:34;2.08;;;0.30;;
46713;SDS011;32445;51.376;10.874;2022-08-06T13:18:35;1.40;;;0.20;;
46713;SDS011;32445;51.376;10.874;2022-08-06T13:21:37;1.48;;;0.25;;
46713;SDS011;32445;51.376;10.874;2022-08-06T13:24:39;1.00;;;0.20;;
46713;SDS011;32445;51.376;10.874;2022-08-06T13:30:40;0.57;;;0.17;;
46713;SDS011;32445;51.376;10.874;2022-08-06T13:36:42;1.50;;;0.20;;
46713;SDS011;32445;51.376;10.874;2022-08-06T13:39:53;1.10;;;0.63;;
46713;SDS011;32445;51.376;10.874;2022-08-06T13:42:56;0.88;;;0.38;;
46713;SDS011;32445;51.376;10.874;2022-08-06T13:46:15;0.25;;;0.10;;
46713;SDS011;32445;51.376;10.874;2022-08-06T13:49:16;0.75;;;0.20;;
46713;SDS011;32445;51.376;10.874;2022-08-06T13:52:17;2.20;;;0.20;;
46713;SDS011;32445;51.376;10.874;2022-08-06T13:55:24;1.48;;;0.20;;
46713;SDS011;32445;51.376;10.874;2022-08-06T13:58:25;0.60;;;0.20;;
46713;SDS011;32445;51.376;10.874;2022-08-06T14:01:26;1.17;;;0.32;;
46713;SDS011;32445;51.376;10.874;2022-08-06T14:04:27;1.05;;;0.20;;
46713;SDS011;32445;51.376;10.874;2022-08-06T14:07:29;1.48;;;0.13;;
46713;SDS011;32445;51.376;10.874;2022-08-06T14:10:30;1.05;;;0.20;;
46713;SDS011;32445;51.376;10.874;2022-08-06T14:13:30;0.60;;;0.17;;
46713;SDS011;32445;51.376;10.874;2022-08-06T14:16:32;0.85;;;0.20;;
46713;SDS011;32445;51.376;10.874;2022-08-06T14:19:32;0.65;;;0.20;;
46713;SDS011;32445;51.376;10.874;2022-08-06T14:22:32;1.00;;;0.20;;
46713;SDS011;32445;51.376;10.874;2022-08-06T14:25:33;2.15;;;0.20;;
46713;SDS011;32445;51.376;10.874;2022-08-06T14:28:34;0.90;;;0.30;;
46713;SDS011;32445;51.376;10.874;2022-08-06T14:31:35;2.20;;;0.30;;
46713;SDS011;32445;51.376;10.874;2022-08-06T14:34:35;2.65;;;0.20;;
46713;SDS011;32445;51.376;10.874;2022-08-06T14:37:36;1.55;;;0.30;;
46713;SDS011;32445;51.376;10.874;2022-08-06T14:40:36;4.15;;;0.10;;
46713;SDS011;32445;51.376;10.874;2022-08-06T14:43:55;1.05;;;0.10;;
46713;SDS011;32445;51.376;10.874;2022-08-06T14:47:14;0.93;;;0.20;;
46713;SDS011;32445;51.376;10.874;2022-08-06T14:50:14;2.47;;;0.28;;
46713;SDS011;32445;51.376;10.874;2022-08-06T14:53:15;2.90;;;0.13;;
46713;SDS011;32445;51.376;10.874;2022-08-06T14:56:16;2.13;;;0.28;;
46713;SDS011;32445;51.376;10.874;2022-08-06T14:59:16;0.80;;;0.13;;
46713;SDS011;32445;51.376;10.874;2022-08-06T15:02:16;0.25;;;0.10;;
46713;SDS011;32445;51.376;10.874;2022-08-06T15:05:17;1.50;;;0.17;;
46713;SDS011;32445;51.376;10.874;2022-08-06T15:08:18;1.17;;;0.30;;
46713;SDS011;32445;51.376;10.874;2022-08-06T15:11:18;1.02;;;0.30;;
46713;SDS011;32445;51.376;10.874;2022-08-06T15:14:18;1.30;;;0.20;;
46713;SDS011;32445;51.376;10.874;2022-08-06T15:17:19;0.20;;;0.10;;
46713;SDS011;32445;51.376;10.874;2022-08-06T15:20:19;2.53;;;0.28;;
46713;SDS011;32445;51.376;10.874;2022-08-06T15:23:20;0.20;;;0.13;;
46713;SDS011;32445;51.376;10.874;2022-08-06T15:26:21;0.73;;;0.20;;
46713;SDS011;32445;51.376;10.874;2022-08-06T15:29:22;2.08;;;0.28;;
46713;SDS011;32445;51.376;10.874;2022-08-06T15:32:24;0.47;;;0.20;;
46713;SDS011;32445;51.376;10.874;2022-08-06T15:35:24;1.73;;;0.10;;
46713;SDS011;32445;51.376;10.874;2022-08-06T15:38:28;0.73;;;0.10;;
46713;SDS011;32445;51.376;10.874;2022-08-06T15:41:28;0.22;;;0.10;;
46713;SDS011;32445;51.376;10.874;2022-08-06T15:44:30;2.30;;;0.20;;
46713;SDS011;32445;51.376;10.874;2022-08-06T15:47:31;0.63;;;0.20;;
46713;SDS011;32445;51.376;10.874;2022-08-06T15:50:31;1.65;;;0.50;;
46713;SDS011;32445;51.376;10.874;2022-08-06T15:53:32;0.77;;;0.30;;
46713;SDS011;32445;51.376;10.874;2022-08-06T15:56:32;0.30;;;0.15;;
46713;SDS011;32445;51.376;10.874;2022-08-06T15:59:34;2.58;;;0.20;;
46713;SDS011;32445;51.376;10.874;2022-08-06T16:02:34;0.63;;;0.10;;
46713;SDS011;32445;51.376;10.874;2022-08-06T16:05:35;0.65;;;0.20;;
46713;SDS011;32445;51.376;10.874;2022-08-06T16:08:37;1.27;;;0.20;;
46713;SDS011;32445;51.376;10.874;2022-08-06T16:11:39;0.28;;;0.10;;
46713;SDS011;32445;51.376;10.874;2022-08-06T16:14:39;0.45;;;0.20;;
46713;SDS011;32445;51.376;10.874;2022-08-06T16:17:40;0.17;;;0.10;;
46713;SDS011;32445;51.376;10.874;2022-08-06T16:20:41;0.50;;;0.20;;
46713;SDS011;32445;51.376;10.874;2022-08-06T16:23:45;0.40;;;0.17;;
46713;SDS011;32445;51.376;10.874;2022-08-06T16:26:46;0.50;;;0.20;;
46713;SDS011;32445;51.376;10.874;2022-08-06T16:29:46;1.58;;;0.30;;
46713;SDS011;32445;51.376;10.874;2022-08-06T16:32:47;0.95;;;0.10;;
46713;SDS011;32445;51.376;10.874;2022-08-06T16:35:49;0.90;;;0.20;;
46713;SDS011;32445;51.376;10.874;2022-08-06T16:38:50;0.70;;;0.20;;
46713;SDS011;32445;51.376;10.874;2022-08-06T16:41:50;1.83;;;0.20;;
46713;SDS011;32445;51.376;10.874;2022-08-06T16:44:51;0.63;;;0.20;;
46713;SDS011;32445;51.376;10.874;2022-08-06T16:47:51;2.28;;;0.30;;
46713;SDS011;32445;51.376;10.874;2022-08-06T16:50:54;1.77;;;0.20;;
46713;SDS011;32445;51.376;10.874;2022-08-06T16:53:54;0.20;;;0.10;;
46713;SDS011;32445;51.376;10.874;2022-08-06T16:56:55;0.30;;;0.20;;
46713;SDS011;32445;51.376;10.874;2022-08-06T16:59:56;3.03;;;0.20;;
46713;SDS011;32445;51.376;10.874;2022-08-06T17:02:56;0.10;;;0.10;;
46713;SDS011;32445;51.376;10.874;2022-08-06T17:05:56;0.52;;;0.20;;
46713;SDS011;32445;51.376;10.874;2022-08-06T17:08:58;3.15;;;0.22;;
46713;SDS011;32445;51.376;10.874;2022-08-06T17:11:59;1.77;;;0.38;;
46713;SDS011;32445;51.376;10.874;2022-08-06T17:15:01;0.38;;;0.10;;
46713;SDS011;32445;51.376;10.874;2022-08-06T17:21:02;1.87;;;0.30;;
46713;SDS011;32445;51.376;10.874;2022-08-06T17:27:03;0.20;;;0.10;;
46713;SDS011;32445;51.376;10.874;2022-08-06T17:30:08;0.85;;;0.30;;
46713;SDS011;32445;51.376;10.874;2022-08-06T17:33:10;0.68;;;0.10;;
46713;SDS011;32445;51.376;10.874;2022-08-06T17:39:11;1.00;;;0.20;;
46713;SDS011;32445;51.376;10.874;2022-08-06T17:45:12;2.87;;;0.20;;
46713;SDS011;32445;51.376;10.874;2022-08-06T17:51:13;1.93;;;0.20;;
46713;SDS011;32445;51.376;10.874;2022-08-06T17:57:14;1.52;;;0.43;;
46713;SDS011;32445;51.376;10.874;2022-08-06T18:03:15;0.52;;;0.20;;
46713;SDS011;32445;51.376;10.874;2022-08-06T18:09:16;0.30;;;0.27;;
46713;SDS011;32445;51.376;10.874;2022-08-06T18:15:18;1.17;;;0.28;;
46713;SDS011;32445;51.376;10.874;2022-08-06T18:18:19;0.85;;;0.10;;
46713;SDS011;32445;51.376;10.874;2022-08-06T18:21:20;0.25;;;0.15;;
46713;SDS011;32445;51.376;10.874;2022-08-06T18:24:22;0.17;;;0.10;;
46713;SDS011;32445;51.376;10.874;2022-08-06T18:27:24;2.20;;;0.20;;
46713;SDS011;32445;51.376;10.874;2022-08-06T18:30:24;1.05;;;0.20;;
46713;SDS011;32445;51.376;10.874;2022-08-06T18:33:25;1.00;;;0.20;;
46713;SDS011;32445;51.376;10.874;2022-08-06T18:36:26;0.50;;;0.10;;
46713;SDS011;32445;51.376;10.874;2022-08-06T18:39:26;0.35;;;0.05;;
46713;SDS011;32445;51.376;10.874;2022-08-06T18:42:27;1.08;;;0.10;;
46713;SDS011;32445;51.376;10.874;2022-08-06T18:45:27;2.45;;;0.20;;
46713;SDS011;32445;51.376;10.874;2022-08-06T18:48:28;1.45;;;0.57;;
46713;SDS011;32445;51.376;10.874;2022-08-06T18:51:28;1.23;;;0.57;;
46713;SDS011;32445;51.376;10.874;2022-08-06T18:54:28;1.23;;;0.70;;
46713;SDS011;32445;51.376;10.874;2022-08-06T18:57:29;0.75;;;0.30;;
46713;SDS011;32445;51.376;10.874;2022-08-06T19:00:29;0.73;;;0.50;;
46713;SDS011;32445;51.376;10.874;2022-08-06T19:03:30;0.70;;;0.33;;
46713;SDS011;32445;51.376;10.874;2022-08-06T19:06:30;0.70;;;0.50;;
46713;SDS011;32445;51.376;10.874;2022-08-06T19:09:32;0.52;;;0.30;;
46713;SDS011;32445;51.376;10.874;2022-08-06T19:12:34;1.25;;;0.30;;
46713;SDS011;32445;51.376;10.874;2022-08-06T19:15:36;0.30;;;0.10;;
46713;SDS011;32445;51.376;10.874;2022-08-06T19:18:36;0.98;;;0.30;;
46713;SDS011;32445;51.376;10.874;2022-08-06T19:21:37;0.53;;;0.10;;
46713;SDS011;32445;51.376;10.874;2022-08-06T19:24:37;1.20;;;0.33;;
46713;SDS011;32445;51.376;10.874;2022-08-06T19:27:38;0.40;;;0.10;;
46713;SDS011;32445;51.376;10.874;2022-08-06T19:30:40;4.85;;;0.38;;
46713;SDS011;32445;51.376;10.874;2022-08-06T19:33:40;0.33;;;0.20;;
46713;SDS011;32445;51.376;10.874;2022-08-06T19:36:47;0.52;;;0.20;;
46713;SDS011;32445;51.376;10.874;2022-08-06T19:39:50;0.63;;;0.35;;